Nearby METAR Reports

 

KDEN - Denver, Colorado, Denver International Airport, USA
Distance from station: W 194mi, 312.4km
Updated: Sat, 19-Jun-2021 6:53pm CDT
Mostly cloudy
Mostly cloudy
 Wind from WNW
Wind: WNW 14 mph , 22 km/h
Temperature: 79°F , 26°C
Dew Point: 55°F , 13°C
Humidity: 45%
Barometer: 29.92 inHg , 1013.2 hPa
Clouds: Mostly cloudy
Visibility: 10 miles , 16 km
Cloud details: Few Clouds 7000 ft
Partly cloudy 11000 ft
Mostly cloudy 16000 ft
Mostly cloudy 20000 ft
2021/06/19 23:53 KDEN 192353Z 29012KT 10SM FEW070 SCT110 BKN160 BKN200 26/13 A2992 RMK AO2 SLP052 60000 T02610128 10311 20233 56007